sensor_id;sensor_type;location;lat;lon;timestamp;pressure;altitude;pressure_sealevel;temperature;humidity
1371;BME280;14306;49.942;11.570;2023-02-23T00:01:53;97160.50;;;10.40;82.27
1371;BME280;14306;49.942;11.570;2023-02-23T00:04:22;97149.84;;;10.43;81.56
1371;BME280;14306;49.942;11.570;2023-02-23T00:06:52;97161.72;;;10.56;81.18
1371;BME280;14306;49.942;11.570;2023-02-23T00:09:20;97164.59;;;10.59;81.12
1371;BME280;14306;49.942;11.570;2023-02-23T00:11:55;97161.53;;;10.52;81.77
1371;BME280;14306;49.942;11.570;2023-02-23T00:14:25;97158.84;;;10.52;81.28
1371;BME280;14306;49.942;11.570;2023-02-23T00:16:56;97160.31;;;10.36;82.46
1371;BME280;14306;49.942;11.570;2023-02-23T00:19:25;97162.41;;;10.39;82.38
1371;BME280;14306;49.942;11.570;2023-02-23T00:21:53;97163.00;;;10.36;82.18
1371;BME280;14306;49.942;11.570;2023-02-23T00:24:24;97158.63;;;10.49;81.83
1371;BME280;14306;49.942;11.570;2023-02-23T00:26:53;97157.53;;;10.06;83.66
1371;BME280;14306;49.942;11.570;2023-02-23T00:29:23;97150.91;;;9.98;83.59
1371;BME280;14306;49.942;11.570;2023-02-23T00:31:51;97144.34;;;9.91;84.50
1371;BME280;14306;49.942;11.570;2023-02-23T00:34:23;97145.75;;;9.88;84.64
1371;BME280;14306;49.942;11.570;2023-02-23T00:36:53;97141.84;;;9.81;84.72
1371;BME280;14306;49.942;11.570;2023-02-23T00:39:22;97132.97;;;10.02;83.61
1371;BME280;14306;49.942;11.570;2023-02-23T00:41:55;97146.91;;;10.09;83.42
1371;BME280;14306;49.942;11.570;2023-02-23T00:44:28;97140.88;;;10.12;83.35
1371;BME280;14306;49.942;11.570;2023-02-23T00:46:58;97150.88;;;10.12;83.57
1371;BME280;14306;49.942;11.570;2023-02-23T00:49:28;97126.25;;;10.00;83.46
1371;BME280;14306;49.942;11.570;2023-02-23T00:51:56;97142.41;;;10.27;82.76
1371;BME280;14306;49.942;11.570;2023-02-23T00:54:25;97143.56;;;10.56;81.25
1371;BME280;14306;49.942;11.570;2023-02-23T00:56:52;97145.78;;;10.32;81.83
1371;BME280;14306;49.942;11.570;2023-02-23T00:59:20;97144.81;;;10.28;82.01
1371;BME280;14306;49.942;11.570;2023-02-23T01:01:48;97151.19;;;10.32;81.75
1371;BME280;14306;49.942;11.570;2023-02-23T01:04:18;97153.50;;;10.39;81.62
1371;BME280;14306;49.942;11.570;2023-02-23T01:06:47;97151.88;;;10.38;81.38
1371;BME280;14306;49.942;11.570;2023-02-23T01:09:16;97155.75;;;10.23;81.56
1371;BME280;14306;49.942;11.570;2023-02-23T01:11:55;97157.84;;;10.26;81.58
1371;BME280;14306;49.942;11.570;2023-02-23T01:14:28;97158.59;;;10.18;81.49
1371;BME280;14306;49.942;11.570;2023-02-23T01:16:57;97148.38;;;10.15;81.90
1371;BME280;14306;49.942;11.570;2023-02-23T01:19:24;97153.78;;;10.15;82.05
1371;BME280;14306;49.942;11.570;2023-02-23T01:21:54;97156.69;;;10.19;82.05
1371;BME280;14306;49.942;11.570;2023-02-23T01:24:22;97149.31;;;9.97;82.26
1371;BME280;14306;49.942;11.570;2023-02-23T01:26:50;97148.53;;;9.97;82.69
1371;BME280;14306;49.942;11.570;2023-02-23T01:29:19;97141.47;;;9.87;82.87
1371;BME280;14306;49.942;11.570;2023-02-23T01:31:48;97147.56;;;9.79;83.33
1371;BME280;14306;49.942;11.570;2023-02-23T01:34:18;97146.56;;;9.75;83.42
1371;BME280;14306;49.942;11.570;2023-02-23T01:36:47;97141.50;;;9.96;83.30
1371;BME280;14306;49.942;11.570;2023-02-23T01:39:19;97130.56;;;9.79;84.41
1371;BME280;14306;49.942;11.570;2023-02-23T01:41:48;97128.53;;;9.84;84.10
1371;BME280;14306;49.942;11.570;2023-02-23T01:47:25;97125.97;;;9.66;85.41
1371;BME280;14306;49.942;11.570;2023-02-23T01:49:53;97118.97;;;9.65;85.12
1371;BME280;14306;49.942;11.570;2023-02-23T01:52:21;97128.63;;;9.79;84.60
1371;BME280;14306;49.942;11.570;2023-02-23T01:54:52;97125.63;;;9.81;84.35
1371;BME280;14306;49.942;11.570;2023-02-23T01:57:22;97118.31;;;9.81;84.15
1371;BME280;14306;49.942;11.570;2023-02-23T01:59:53;97120.25;;;9.67;84.65
1371;BME280;14306;49.942;11.570;2023-02-23T02:02:24;97128.34;;;9.81;84.21
1371;BME280;14306;49.942;11.570;2023-02-23T02:05:00;97124.53;;;9.82;83.91
1371;BME280;14306;49.942;11.570;2023-02-23T02:07:32;97119.63;;;9.84;83.90
1371;BME280;14306;49.942;11.570;2023-02-23T02:10:05;97117.50;;;9.81;83.58
1371;BME280;14306;49.942;11.570;2023-02-23T02:12:59;97119.13;;;9.82;84.02
1371;BME280;14306;49.942;11.570;2023-02-23T02:15:34;97109.59;;;9.84;83.57
1371;BME280;14306;49.942;11.570;2023-02-23T02:18:10;97118.63;;;9.80;83.55
1371;BME280;14306;49.942;11.570;2023-02-23T02:21:01;97106.41;;;9.47;85.54
1371;BME280;14306;49.942;11.570;2023-02-23T02:24:11;97110.56;;;9.66;84.34
1371;BME280;14306;49.942;11.570;2023-02-23T02:27:00;97108.47;;;9.63;84.76
1371;BME280;14306;49.942;11.570;2023-02-23T02:33:07;97123.06;;;9.76;83.92
1371;BME280;14306;49.942;11.570;2023-02-23T02:36:06;97119.50;;;9.89;83.72
1371;BME280;14306;49.942;11.570;2023-02-23T02:38:48;97122.13;;;10.02;83.12
1371;BME280;14306;49.942;11.570;2023-02-23T02:41:27;97124.25;;;9.83;83.92
1371;BME280;14306;49.942;11.570;2023-02-23T02:44:06;97122.00;;;9.85;83.74
1371;BME280;14306;49.942;11.570;2023-02-23T02:46:40;97107.38;;;9.86;83.55
1371;BME280;14306;49.942;11.570;2023-02-23T02:49:16;97116.19;;;9.92;83.05
1371;BME280;14306;49.942;11.570;2023-02-23T02:51:54;97117.63;;;10.11;82.90
1371;BME280;14306;49.942;11.570;2023-02-23T02:54:30;97107.31;;;10.00;82.97
1371;BME280;14306;49.942;11.570;2023-02-23T02:57:02;97123.97;;;10.07;83.25
1371;BME280;14306;49.942;11.570;2023-02-23T02:59:41;97127.47;;;10.07;83.54
1371;BME280;14306;49.942;11.570;2023-02-23T03:02:27;97130.56;;;10.14;83.08
1371;BME280;14306;49.942;11.570;2023-02-23T03:05:17;97137.97;;;10.31;82.18
1371;BME280;14306;49.942;11.570;2023-02-23T03:08:09;97133.22;;;10.58;81.04
1371;BME280;14306;49.942;11.570;2023-02-23T03:11:01;97120.66;;;10.32;81.78
1371;BME280;14306;49.942;11.570;2023-02-23T03:13:56;97131.94;;;10.34;81.42
1371;BME280;14306;49.942;11.570;2023-02-23T03:16:52;97138.31;;;10.60;80.84
1371;BME280;14306;49.942;11.570;2023-02-23T03:19:47;97139.00;;;10.43;80.90
1371;BME280;14306;49.942;11.570;2023-02-23T03:22:45;97126.22;;;10.13;81.60
1371;BME280;14306;49.942;11.570;2023-02-23T03:25:44;97132.16;;;10.15;82.62
1371;BME280;14306;49.942;11.570;2023-02-23T03:28:36;97138.38;;;10.02;82.85
1371;BME280;14306;49.942;11.570;2023-02-23T03:31:26;97131.56;;;10.05;83.11
1371;BME280;14306;49.942;11.570;2023-02-23T03:34:21;97135.09;;;10.05;82.65
1371;BME280;14306;49.942;11.570;2023-02-23T03:37:12;97142.50;;;10.00;83.22
1371;BME280;14306;49.942;11.570;2023-02-23T03:40:05;97142.59;;;10.08;82.69
1371;BME280;14306;49.942;11.570;2023-02-23T03:42:54;97145.47;;;10.12;82.66
1371;BME280;14306;49.942;11.570;2023-02-23T03:45:45;97145.78;;;10.32;81.94
1371;BME280;14306;49.942;11.570;2023-02-23T03:48:34;97133.66;;;10.08;82.71
1371;BME280;14306;49.942;11.570;2023-02-23T03:51:23;97149.59;;;10.09;82.69
1371;BME280;14306;49.942;11.570;2023-02-23T03:54:14;97146.75;;;9.92;83.38
1371;BME280;14306;49.942;11.570;2023-02-23T03:57:04;97129.81;;;9.87;83.36
1371;BME280;14306;49.942;11.570;2023-02-23T03:59:54;97149.69;;;10.04;83.05
1371;BME280;14306;49.942;11.570;2023-02-23T04:02:47;97145.44;;;9.90;83.80
1371;BME280;14306;49.942;11.570;2023-02-23T04:05:37;97143.22;;;9.92;83.08
1371;BME280;14306;49.942;11.570;2023-02-23T04:08:27;97140.03;;;9.90;83.13
1371;BME280;14306;49.942;11.570;2023-02-23T04:11:19;97134.00;;;9.93;83.43
1371;BME280;14306;49.942;11.570;2023-02-23T04:14:16;97149.00;;;10.12;82.84
1371;BME280;14306;49.942;11.570;2023-02-23T04:16:44;97143.56;;;10.12;82.77
1371;BME280;14306;49.942;11.570;2023-02-23T04:19:13;97153.91;;;10.32;82.39
1371;BME280;14306;49.942;11.570;2023-02-23T04:21:41;97147.78;;;10.18;82.57
1371;BME280;14306;49.942;11.570;2023-02-23T04:24:10;97145.31;;;10.30;82.03
1371;BME280;14306;49.942;11.570;2023-02-23T04:26:38;97145.41;;;10.47;81.57
1371;BME280;14306;49.942;11.570;2023-02-23T04:29:06;97133.00;;;10.46;81.20
1371;BME280;14306;49.942;11.570;2023-02-23T04:31:35;97152.53;;;10.65;79.90
1371;BME280;14306;49.942;11.570;2023-02-23T04:34:03;97145.91;;;10.27;81.28
1371;BME280;14306;49.942;11.570;2023-02-23T04:36:33;97154.78;;;10.41;80.90
1371;BME280;14306;49.942;11.570;2023-02-23T04:39:02;97125.13;;;9.43;84.40
1371;BME280;14306;49.942;11.570;2023-02-23T04:41:31;97138.06;;;9.82;83.16
1371;BME280;14306;49.942;11.570;2023-02-23T04:44:00;97147.66;;;9.88;82.68
1371;BME280;14306;49.942;11.570;2023-02-23T04:46:29;97136.31;;;9.64;83.27
1371;BME280;14306;49.942;11.570;2023-02-23T04:48:57;97148.47;;;9.88;82.88
1371;BME280;14306;49.942;11.570;2023-02-23T04:51:26;97141.69;;;9.15;85.70
1371;BME280;14306;49.942;11.570;2023-02-23T04:53:59;97143.97;;;9.35;85.50
1371;BME280;14306;49.942;11.570;2023-02-23T04:56:29;97151.19;;;9.75;83.77
1371;BME280;14306;49.942;11.570;2023-02-23T04:58:57;97151.28;;;9.83;83.75
1371;BME280;14306;49.942;11.570;2023-02-23T05:01:27;97158.16;;;9.89;83.35
1371;BME280;14306;49.942;11.570;2023-02-23T05:03:55;97154.72;;;9.97;82.74
1371;BME280;14306;49.942;11.570;2023-02-23T05:06:24;97149.63;;;9.96;82.26
1371;BME280;14306;49.942;11.570;2023-02-23T05:08:52;97153.88;;;9.88;82.38
1371;BME280;14306;49.942;11.570;2023-02-23T05:11:22;97152.94;;;9.93;82.59
1371;BME280;14306;49.942;11.570;2023-02-23T05:13:51;97149.88;;;9.86;83.09
1371;BME280;14306;49.942;11.570;2023-02-23T05:16:20;97141.63;;;9.55;84.05
1371;BME280;14306;49.942;11.570;2023-02-23T05:18:48;97139.91;;;9.59;83.94
1371;BME280;14306;49.942;11.570;2023-02-23T05:21:18;97138.31;;;9.58;84.00
1371;BME280;14306;49.942;11.570;2023-02-23T05:23:46;97138.84;;;9.47;84.51
1371;BME280;14306;49.942;11.570;2023-02-23T05:26:15;97135.22;;;9.51;84.07
1371;BME280;14306;49.942;11.570;2023-02-23T05:28:45;97142.66;;;9.32;85.21
1371;BME280;14306;49.942;11.570;2023-02-23T05:31:14;97143.56;;;9.41;84.60
1371;BME280;14306;49.942;11.570;2023-02-23T05:33:44;97139.66;;;9.34;84.97
1371;BME280;14306;49.942;11.570;2023-02-23T05:36:14;97142.91;;;9.22;85.38
1371;BME280;14306;49.942;11.570;2023-02-23T05:38:44;97139.16;;;9.05;86.44
1371;BME280;14306;49.942;11.570;2023-02-23T05:41:15;97136.56;;;9.13;85.89
1371;BME280;14306;49.942;11.570;2023-02-23T05:43:46;97135.69;;;9.04;85.54
1371;BME280;14306;49.942;11.570;2023-02-23T05:46:19;97147.38;;;9.13;85.59
1371;BME280;14306;49.942;11.570;2023-02-23T05:48:49;97147.78;;;9.07;85.87
1371;BME280;14306;49.942;11.570;2023-02-23T05:51:18;97144.91;;;8.90;86.73
1371;BME280;14306;49.942;11.570;2023-02-23T05:53:47;97141.88;;;8.91;86.55
1371;BME280;14306;49.942;11.570;2023-02-23T05:56:17;97134.47;;;8.70;87.27
1371;BME280;14306;49.942;11.570;2023-02-23T05:58:49;97145.34;;;8.65;88.07
1371;BME280;14306;49.942;11.570;2023-02-23T06:01:19;97159.97;;;8.64;87.85
1371;BME280;14306;49.942;11.570;2023-02-23T06:03:47;97154.84;;;8.62;87.82
1371;BME280;14306;49.942;11.570;2023-02-23T06:06:16;97137.31;;;8.33;88.83
1371;BME280;14306;49.942;11.570;2023-02-23T06:08:46;97160.94;;;8.54;88.60
1371;BME280;14306;49.942;11.570;2023-02-23T06:11:15;97163.72;;;8.63;87.88
1371;BME280;14306;49.942;11.570;2023-02-23T06:13:44;97172.88;;;8.80;87.10
1371;BME280;14306;49.942;11.570;2023-02-23T06:16:15;97171.19;;;8.98;86.35
1371;BME280;14306;49.942;11.570;2023-02-23T06:18:57;97172.66;;;8.77;86.84
1371;BME280;14306;49.942;11.570;2023-02-23T06:21:25;97179.78;;;8.86;86.89
1371;BME280;14306;49.942;11.570;2023-02-23T06:23:53;97169.84;;;8.68;86.95
1371;BME280;14306;49.942;11.570;2023-02-23T06:26:26;97175.06;;;8.65;87.19
1371;BME280;14306;49.942;11.570;2023-02-23T06:28:54;97189.69;;;8.77;87.44
1371;BME280;14306;49.942;11.570;2023-02-23T06:31:24;97194.38;;;8.85;87.46
1371;BME280;14306;49.942;11.570;2023-02-23T06:33:53;97190.88;;;8.98;86.41
1371;BME280;14306;49.942;11.570;2023-02-23T06:36:21;97198.59;;;9.05;86.35
1371;BME280;14306;49.942;11.570;2023-02-23T06:38:49;97206.63;;;9.10;86.13
1371;BME280;14306;49.942;11.570;2023-02-23T06:41:18;97209.31;;;9.23;85.77
1371;BME280;14306;49.942;11.570;2023-02-23T06:43:47;97203.34;;;9.26;85.45
1371;BME280;14306;49.942;11.570;2023-02-23T06:46:15;97210.72;;;9.34;85.24
1371;BME280;14306;49.942;11.570;2023-02-23T06:48:46;97210.31;;;9.68;84.26
1371;BME280;14306;49.942;11.570;2023-02-23T06:51:14;97213.84;;;9.55;84.66
1371;BME280;14306;49.942;11.570;2023-02-23T06:53:44;97221.25;;;9.49;84.39
1371;BME280;14306;49.942;11.570;2023-02-23T06:56:13;97214.84;;;9.45;84.65
1371;BME280;14306;49.942;11.570;2023-02-23T06:58:41;97213.13;;;9.36;85.13
1371;BME280;14306;49.942;11.570;2023-02-23T07:01:09;97221.63;;;9.56;84.37
1371;BME280;14306;49.942;11.570;2023-02-23T07:03:39;97217.06;;;9.92;83.22
1371;BME280;14306;49.942;11.570;2023-02-23T07:06:08;97222.34;;;9.97;83.22
1371;BME280;14306;49.942;11.570;2023-02-23T07:08:36;97218.75;;;10.15;83.08
1371;BME280;14306;49.942;11.570;2023-02-23T07:11:06;97228.28;;;10.57;80.95
1371;BME280;14306;49.942;11.570;2023-02-23T07:13:35;97223.25;;;10.20;82.53
1371;BME280;14306;49.942;11.570;2023-02-23T07:16:05;97231.44;;;10.72;80.02
1371;BME280;14306;49.942;11.570;2023-02-23T07:18:34;97230.91;;;10.62;80.41
1371;BME280;14306;49.942;11.570;2023-02-23T07:21:02;97234.63;;;10.74;80.22
1371;BME280;14306;49.942;11.570;2023-02-23T07:23:32;97232.25;;;10.51;80.42
1371;BME280;14306;49.942;11.570;2023-02-23T07:26:01;97224.16;;;10.81;79.90
1371;BME280;14306;49.942;11.570;2023-02-23T07:28:29;97235.59;;;11.00;80.36
1371;BME280;14306;49.942;11.570;2023-02-23T07:30:57;97231.59;;;11.37;79.76
1371;BME280;14306;49.942;11.570;2023-02-23T07:33:26;97230.72;;;11.58;78.78
1371;BME280;14306;49.942;11.570;2023-02-23T07:35:55;97234.31;;;11.67;76.49
1371;BME280;14306;49.942;11.570;2023-02-23T07:38:23;97240.16;;;12.43;74.70
1371;BME280;14306;49.942;11.570;2023-02-23T07:40:54;97240.00;;;12.14;76.94
1371;BME280;14306;49.942;11.570;2023-02-23T07:43:22;97236.38;;;11.70;76.69
1371;BME280;14306;49.942;11.570;2023-02-23T07:45:50;97240.59;;;12.96;72.36
1371;BME280;14306;49.942;11.570;2023-02-23T07:48:20;97239.06;;;12.35;73.58
1371;BME280;14306;49.942;11.570;2023-02-23T07:50:48;97247.03;;;12.32;73.43
1371;BME280;14306;49.942;11.570;2023-02-23T07:53:17;97247.63;;;13.14;71.69
1371;BME280;14306;49.942;11.570;2023-02-23T07:55:56;97246.97;;;13.63;70.23
1371;BME280;14306;49.942;11.570;2023-02-23T07:58:24;97239.25;;;13.36;71.04
1371;BME280;14306;49.942;11.570;2023-02-23T08:00:53;97248.94;;;12.99;71.33
1371;BME280;14306;49.942;11.570;2023-02-23T08:03:21;97242.38;;;13.55;70.60
1371;BME280;14306;49.942;11.570;2023-02-23T08:05:49;97242.16;;;14.18;67.59
1371;BME280;14306;49.942;11.570;2023-02-23T08:08:19;97241.41;;;14.58;65.52
1371;BME280;14306;49.942;11.570;2023-02-23T08:10:47;97242.00;;;14.23;66.96
1371;BME280;14306;49.942;11.570;2023-02-23T08:13:17;97244.53;;;13.70;69.20
1371;BME280;14306;49.942;11.570;2023-02-23T08:15:46;97236.94;;;13.55;68.77
1371;BME280;14306;49.942;11.570;2023-02-23T08:18:14;97243.88;;;13.73;67.60
1371;BME280;14306;49.942;11.570;2023-02-23T08:20:43;97236.09;;;13.63;68.69
1371;BME280;14306;49.942;11.570;2023-02-23T08:23:12;97250.31;;;14.26;66.31
1371;BME280;14306;49.942;11.570;2023-02-23T08:25:40;97242.91;;;13.40;68.11
1371;BME280;14306;49.942;11.570;2023-02-23T08:28:08;97241.97;;;13.73;67.27
1371;BME280;14306;49.942;11.570;2023-02-23T08:30:39;97249.72;;;14.12;65.80
1371;BME280;14306;49.942;11.570;2023-02-23T08:33:08;97245.53;;;13.65;68.03
1371;BME280;14306;49.942;11.570;2023-02-23T08:35:37;97249.66;;;14.29;65.19
1371;BME280;14306;49.942;11.570;2023-02-23T08:38:05;97251.94;;;14.19;66.15
1371;BME280;14306;49.942;11.570;2023-02-23T08:40:33;97252.97;;;14.55;64.30
1371;BME280;14306;49.942;11.570;2023-02-23T08:43:02;97265.50;;;15.42;61.86
1371;BME280;14306;49.942;11.570;2023-02-23T08:45:30;97256.31;;;14.93;61.83
1371;BME280;14306;49.942;11.570;2023-02-23T08:47:59;97262.16;;;14.71;63.79
1371;BME280;14306;49.942;11.570;2023-02-23T08:50:28;97253.22;;;14.42;64.18
1371;BME280;14306;49.942;11.570;2023-02-23T08:52:56;97251.31;;;14.63;63.20
1371;BME280;14306;49.942;11.570;2023-02-23T08:55:24;97253.06;;;14.47;64.37
1371;BME280;14306;49.942;11.570;2023-02-23T08:57:53;97261.69;;;14.49;63.40
1371;BME280;14306;49.942;11.570;2023-02-23T09:00:23;97261.41;;;14.83;62.38
1371;BME280;14306;49.942;11.570;2023-02-23T09:02:52;97258.38;;;14.96;61.70
1371;BME280;14306;49.942;11.570;2023-02-23T09:05:22;97250.72;;;14.08;64.19
1371;BME280;14306;49.942;11.570;2023-02-23T09:07:52;97247.94;;;14.66;63.06
1371;BME280;14306;49.942;11.570;2023-02-23T09:10:21;97255.38;;;14.57;63.03
1371;BME280;14306;49.942;11.570;2023-02-23T09:12:54;97255.97;;;14.62;63.46
1371;BME280;14306;49.942;11.570;2023-02-23T09:15:22;97265.56;;;15.01;60.71
1371;BME280;14306;49.942;11.570;2023-02-23T09:17:51;97263.59;;;15.34;61.74
1371;BME280;14306;49.942;11.570;2023-02-23T09:20:22;97276.91;;;15.80;59.19
1371;BME280;14306;49.942;11.570;2023-02-23T09:22:54;97269.84;;;15.91;59.85
1371;BME280;14306;49.942;11.570;2023-02-23T09:25:23;97271.22;;;16.09;59.11
1371;BME280;14306;49.942;11.570;2023-02-23T09:27:53;97289.91;;;17.22;55.80
1371;BME280;14306;49.942;11.570;2023-02-23T09:30:23;97285.66;;;16.58;57.93
1371;BME280;14306;49.942;11.570;2023-02-23T09:32:53;97296.88;;;17.20;54.95
1371;BME280;14306;49.942;11.570;2023-02-23T09:35:24;97306.63;;;18.22;52.80
1371;BME280;14306;49.942;11.570;2023-02-23T09:37:56;97311.75;;;18.24;52.42
1371;BME280;14306;49.942;11.570;2023-02-23T09:40:26;97304.13;;;18.48;51.13
1371;BME280;14306;49.942;11.570;2023-02-23T09:43:00;97319.50;;;18.53;51.68
1371;BME280;14306;49.942;11.570;2023-02-23T09:45:37;97305.28;;;18.16;52.37
1371;BME280;14306;49.942;11.570;2023-02-23T09:48:18;97316.50;;;19.11;50.58
1371;BME280;14306;49.942;11.570;2023-02-23T09:50:51;97322.56;;;19.40;50.02
1371;BME280;14306;49.942;11.570;2023-02-23T09:53:27;97336.56;;;20.14;48.07
1371;BME280;14306;49.942;11.570;2023-02-23T09:55:59;97311.78;;;18.93;50.61
1371;BME280;14306;49.942;11.570;2023-02-23T09:58:33;97307.59;;;18.99;50.56
1371;BME280;14306;49.942;11.570;2023-02-23T10:01:20;97311.13;;;18.80;49.54
1371;BME280;14306;49.942;11.570;2023-02-23T10:03:58;97294.88;;;18.37;52.61
1371;BME280;14306;49.942;11.570;2023-02-23T10:06:31;97318.22;;;19.00;50.45
1371;BME280;14306;49.942;11.570;2023-02-23T10:09:09;97317.06;;;19.40;50.22
1371;BME280;14306;49.942;11.570;2023-02-23T10:11:45;97311.16;;;19.18;50.48
1371;BME280;14306;49.942;11.570;2023-02-23T10:14:24;97337.50;;;20.03;48.34
1371;BME280;14306;49.942;11.570;2023-02-23T10:17:07;97315.25;;;19.09;50.93
1371;BME280;14306;49.942;11.570;2023-02-23T10:19:43;97314.47;;;19.08;50.75
1371;BME280;14306;49.942;11.570;2023-02-23T10:22:18;97319.97;;;19.47;49.76
1371;BME280;14306;49.942;11.570;2023-02-23T10:24:53;97336.03;;;19.86;49.34
1371;BME280;14306;49.942;11.570;2023-02-23T10:27:28;97342.38;;;20.32;48.02
1371;BME280;14306;49.942;11.570;2023-02-23T10:29:59;97333.44;;;20.38;47.92
1371;BME280;14306;49.942;11.570;2023-02-23T10:32:37;97323.19;;;19.71;49.53
1371;BME280;14306;49.942;11.570;2023-02-23T10:35:10;97333.31;;;20.09;48.56
1371;BME280;14306;49.942;11.570;2023-02-23T10:37:40;97331.53;;;20.20;47.77
1371;BME280;14306;49.942;11.570;2023-02-23T10:40:14;97293.00;;;17.95;52.74
1371;BME280;14306;49.942;11.570;2023-02-23T10:42:43;97291.22;;;18.18;52.84
1371;BME280;14306;49.942;11.570;2023-02-23T10:45:13;97295.97;;;18.52;52.33
1371;BME280;14306;49.942;11.570;2023-02-23T10:47:51;97314.56;;;19.73;49.49
1371;BME280;14306;49.942;11.570;2023-02-23T10:50:21;97312.75;;;19.39;50.30
1371;BME280;14306;49.942;11.570;2023-02-23T10:52:57;97305.19;;;18.97;51.46
1371;BME280;14306;49.942;11.570;2023-02-23T10:55:29;97291.69;;;18.20;53.24
1371;BME280;14306;49.942;11.570;2023-02-23T10:58:05;97306.09;;;19.01;51.25
1371;BME280;14306;49.942;11.570;2023-02-23T11:00:37;97294.72;;;18.84;51.88
1371;BME280;14306;49.942;11.570;2023-02-23T11:03:17;97304.28;;;18.90;51.82
1371;BME280;14306;49.942;11.570;2023-02-23T11:05:48;97290.06;;;18.69;52.80
1371;BME280;14306;49.942;11.570;2023-02-23T11:08:27;97282.19;;;18.33;53.76
1371;BME280;14306;49.942;11.570;2023-02-23T11:11:19;97289.31;;;18.87;52.69
1371;BME280;14306;49.942;11.570;2023-02-23T11:13:51;97301.44;;;19.44;50.74
1371;BME280;14306;49.942;11.570;2023-02-23T11:16:22;97293.97;;;18.18;54.38
1371;BME280;14306;49.942;11.570;2023-02-23T11:18:53;97275.50;;;17.84;55.22
1371;BME280;14306;49.942;11.570;2023-02-23T11:21:26;97268.59;;;17.74;55.12
1371;BME280;14306;49.942;11.570;2023-02-23T11:24:11;97253.84;;;17.20;56.85
1371;BME280;14306;49.942;11.570;2023-02-23T11:26:45;97254.66;;;17.21;57.37
1371;BME280;14306;49.942;11.570;2023-02-23T11:29:20;97252.19;;;17.31;56.94
1371;BME280;14306;49.942;11.570;2023-02-23T11:31:54;97257.75;;;17.78;56.02
1371;BME280;14306;49.942;11.570;2023-02-23T11:34:30;97229.84;;;16.59;58.91
1371;BME280;14306;49.942;11.570;2023-02-23T11:37:05;97243.50;;;17.14;57.97
1371;BME280;14306;49.942;11.570;2023-02-23T11:39:35;97235.34;;;17.02;58.01
1371;BME280;14306;49.942;11.570;2023-02-23T11:42:16;97231.84;;;16.62;59.29
1371;BME280;14306;49.942;11.570;2023-02-23T11:44:50;97237.22;;;17.13;58.05
1371;BME280;14306;49.942;11.570;2023-02-23T11:47:20;97240.03;;;17.01;58.01
1371;BME280;14306;49.942;11.570;2023-02-23T11:49:49;97240.50;;;17.03;57.95
1371;BME280;14306;49.942;11.570;2023-02-23T11:52:21;97240.13;;;17.05;58.38
1371;BME280;14306;49.942;11.570;2023-02-23T11:54:55;97238.50;;;17.31;57.51
1371;BME280;14306;49.942;11.570;2023-02-23T11:57:27;97227.97;;;17.18;57.45
1371;BME280;14306;49.942;11.570;2023-02-23T11:59:59;97234.56;;;17.01;58.21
1371;BME280;14306;49.942;11.570;2023-02-23T12:02:31;97232.63;;;17.02;58.20
1371;BME280;14306;49.942;11.570;2023-02-23T12:05:04;97228.78;;;16.91;58.35
1371;BME280;14306;49.942;11.570;2023-02-23T12:07:37;97223.31;;;16.63;60.73
1371;BME280;14306;49.942;11.570;2023-02-23T12:10:18;97215.19;;;16.94;61.09
1371;BME280;14306;49.942;11.570;2023-02-23T12:12:53;97226.47;;;16.77;62.29
1371;BME280;14306;49.942;11.570;2023-02-23T12:15:29;97213.16;;;16.12;65.12
1371;BME280;14306;49.942;11.570;2023-02-23T12:18:03;97223.72;;;16.77;62.76
1371;BME280;14306;49.942;11.570;2023-02-23T12:20:40;97213.19;;;16.64;62.50
1371;BME280;14306;49.942;11.570;2023-02-23T12:23:12;97214.88;;;16.17;64.23
1371;BME280;14306;49.942;11.570;2023-02-23T12:25:49;97195.09;;;15.96;66.28
1371;BME280;14306;49.942;11.570;2023-02-23T12:28:22;97199.09;;;15.74;68.96
1371;BME280;14306;49.942;11.570;2023-02-23T12:30:58;97205.75;;;15.28;70.17
1371;BME280;14306;49.942;11.570;2023-02-23T12:33:33;97196.75;;;15.16;70.68
1371;BME280;14306;49.942;11.570;2023-02-23T12:36:11;97196.28;;;15.26;72.37
1371;BME280;14306;49.942;11.570;2023-02-23T12:38:48;97192.81;;;14.93;71.07
1371;BME280;14306;49.942;11.570;2023-02-23T12:41:30;97202.22;;;15.28;71.57
1371;BME280;14306;49.942;11.570;2023-02-23T12:44:03;97195.00;;;15.11;72.79
1371;BME280;14306;49.942;11.570;2023-02-23T12:46:44;97192.63;;;15.22;74.12
1371;BME280;14306;49.942;11.570;2023-02-23T12:49:19;97192.97;;;15.20;73.50
1371;BME280;14306;49.942;11.570;2023-02-23T12:51:54;97185.09;;;14.95;74.74
1371;BME280;14306;49.942;11.570;2023-02-23T12:54:27;97188.19;;;14.73;73.52
1371;BME280;14306;49.942;11.570;2023-02-23T12:57:06;97187.38;;;14.93;72.93
1371;BME280;14306;49.942;11.570;2023-02-23T13:00:06;97185.28;;;14.78;72.55
1371;BME280;14306;49.942;11.570;2023-02-23T13:03:04;97171.50;;;14.74;72.04
1371;BME280;14306;49.942;11.570;2023-02-23T13:05:40;97178.91;;;14.74;72.29
1371;BME280;14306;49.942;11.570;2023-02-23T13:08:19;97182.50;;;14.66;71.27
1371;BME280;14306;49.942;11.570;2023-02-23T13:10:56;97176.44;;;14.81;71.59
1371;BME280;14306;49.942;11.570;2023-02-23T13:13:36;97174.34;;;15.10;69.83
1371;BME280;14306;49.942;11.570;2023-02-23T13:16:13;97175.22;;;15.02;70.41
1371;BME280;14306;49.942;11.570;2023-02-23T13:18:48;97177.47;;;15.00;71.03
1371;BME280;14306;49.942;11.570;2023-02-23T13:21:24;97173.84;;;14.96;71.17
1371;BME280;14306;49.942;11.570;2023-02-23T13:23:58;97180.13;;;15.21;69.81
1371;BME280;14306;49.942;11.570;2023-02-23T13:26:34;97174.16;;;14.83;70.48
1371;BME280;14306;49.942;11.570;2023-02-23T13:29:14;97171.19;;;15.32;69.24
1371;BME280;14306;49.942;11.570;2023-02-23T13:31:49;97171.13;;;14.96;69.90
1371;BME280;14306;49.942;11.570;2023-02-23T13:34:25;97171.13;;;15.08;69.79
1371;BME280;14306;49.942;11.570;2023-02-23T13:36:56;97163.53;;;15.14;69.64
1371;BME280;14306;49.942;11.570;2023-02-23T13:39:52;97161.94;;;15.25;69.32
1371;BME280;14306;49.942;11.570;2023-02-23T13:42:34;97172.91;;;14.92;70.04
1371;BME280;14306;49.942;11.570;2023-02-23T13:48:11;97157.34;;;14.81;69.40